sensor_id;sensor_type;location;lat;lon;timestamp;pressure;altitude;pressure_sealevel;temperature;humidity
21240;BME280;10778;48.962;9.018;2023-03-20T00:01:27;99345.19;;;6.97;100.00
21240;BME280;10778;48.962;9.018;2023-03-20T00:03:55;99338.06;;;7.00;100.00
21240;BME280;10778;48.962;9.018;2023-03-20T00:06:26;99335.97;;;7.05;100.00
21240;BME280;10778;48.962;9.018;2023-03-20T00:08:54;99330.69;;;7.18;100.00
21240;BME280;10778;48.962;9.018;2023-03-20T00:11:31;99337.19;;;7.12;100.00
21240;BME280;10778;48.962;9.018;2023-03-20T00:14:00;99336.66;;;7.20;100.00
21240;BME280;10778;48.962;9.018;2023-03-20T00:16:46;99342.13;;;7.17;100.00
21240;BME280;10778;48.962;9.018;2023-03-20T00:21:41;99335.44;;;7.13;100.00
21240;BME280;10778;48.962;9.018;2023-03-20T00:24:07;99339.91;;;7.23;100.00
21240;BME280;10778;48.962;9.018;2023-03-20T00:26:34;99345.34;;;7.20;100.00
21240;BME280;10778;48.962;9.018;2023-03-20T00:29:03;99341.78;;;7.21;100.00
21240;BME280;10778;48.962;9.018;2023-03-20T00:31:37;99344.22;;;7.11;100.00
21240;BME280;10778;48.962;9.018;2023-03-20T00:34:12;99350.81;;;7.04;100.00
21240;BME280;10778;48.962;9.018;2023-03-20T00:36:39;99346.53;;;7.03;100.00
21240;BME280;10778;48.962;9.018;2023-03-20T00:39:05;99354.28;;;7.05;100.00
21240;BME280;10778;48.962;9.018;2023-03-20T00:41:32;99356.91;;;7.05;100.00
21240;BME280;10778;48.962;9.018;2023-03-20T00:44:08;99354.28;;;7.05;100.00
21240;BME280;10778;48.962;9.018;2023-03-20T00:46:38;99350.41;;;7.10;100.00
21240;BME280;10778;48.962;9.018;2023-03-20T00:49:05;99357.19;;;7.13;100.00
21240;BME280;10778;48.962;9.018;2023-03-20T00:51:31;99350.06;;;7.15;100.00
21240;BME280;10778;48.962;9.018;2023-03-20T00:53:57;99352.44;;;7.18;100.00
21240;BME280;10778;48.962;9.018;2023-03-20T00:56:32;99355.81;;;7.20;100.00
21240;BME280;10778;48.962;9.018;2023-03-20T00:59:01;99351.19;;;7.24;100.00
21240;BME280;10778;48.962;9.018;2023-03-20T01:01:29;99351.31;;;7.22;100.00
21240;BME280;10778;48.962;9.018;2023-03-20T01:03:58;99360.94;;;7.22;100.00
21240;BME280;10778;48.962;9.018;2023-03-20T01:06:24;99358.31;;;7.22;100.00
21240;BME280;10778;48.962;9.018;2023-03-20T01:08:50;99364.41;;;7.22;100.00
21240;BME280;10778;48.962;9.018;2023-03-20T01:11:22;99361.56;;;7.25;100.00
21240;BME280;10778;48.962;9.018;2023-03-20T01:13:48;99357.13;;;7.26;100.00
21240;BME280;10778;48.962;9.018;2023-03-20T01:16:20;99358.09;;;7.25;100.00
21240;BME280;10778;48.962;9.018;2023-03-20T01:18:48;99354.66;;;7.24;100.00
21240;BME280;10778;48.962;9.018;2023-03-20T01:21:14;99359.97;;;7.23;100.00
21240;BME280;10778;48.962;9.018;2023-03-20T01:23:40;99352.84;;;7.25;100.00
21240;BME280;10778;48.962;9.018;2023-03-20T01:26:20;99364.66;;;7.31;100.00
21240;BME280;10778;48.962;9.018;2023-03-20T01:28:48;99363.94;;;7.29;100.00
21240;BME280;10778;48.962;9.018;2023-03-20T01:31:16;99358.72;;;7.29;100.00
21240;BME280;10778;48.962;9.018;2023-03-20T01:33:43;99360.50;;;7.28;100.00
21240;BME280;10778;48.962;9.018;2023-03-20T01:36:11;99359.66;;;7.28;100.00
21240;BME280;10778;48.962;9.018;2023-03-20T01:38:39;99367.41;;;7.29;100.00
21240;BME280;10778;48.962;9.018;2023-03-20T01:43:39;99363.44;;;7.23;100.00
21240;BME280;10778;48.962;9.018;2023-03-20T01:51:27;99361.06;;;7.20;100.00
21240;BME280;10778;48.962;9.018;2023-03-20T01:54:01;99367.09;;;7.21;100.00
21240;BME280;10778;48.962;9.018;2023-03-20T01:56:31;99365.44;;;7.20;100.00
21240;BME280;10778;48.962;9.018;2023-03-20T01:59:05;99364.50;;;7.21;100.00
21240;BME280;10778;48.962;9.018;2023-03-20T02:01:35;99367.09;;;7.21;100.00
21240;BME280;10778;48.962;9.018;2023-03-20T02:04:02;99374.13;;;7.20;100.00
21240;BME280;10778;48.962;9.018;2023-03-20T02:06:47;99369.94;;;7.18;100.00
21240;BME280;10778;48.962;9.018;2023-03-20T02:09:25;99372.56;;;7.18;100.00
21240;BME280;10778;48.962;9.018;2023-03-20T02:11:52;99379.56;;;7.17;100.00
21240;BME280;10778;48.962;9.018;2023-03-20T02:14:19;99385.03;;;7.14;100.00
21240;BME280;10778;48.962;9.018;2023-03-20T02:16:55;99383.25;;;7.15;100.00
21240;BME280;10778;48.962;9.018;2023-03-20T02:19:53;99385.16;;;7.13;100.00
21240;BME280;10778;48.962;9.018;2023-03-20T02:22:32;99387.75;;;7.13;100.00
21240;BME280;10778;48.962;9.018;2023-03-20T02:30:52;99384.81;;;7.17;100.00
21240;BME280;10778;48.962;9.018;2023-03-20T02:41:38;99382.94;;;7.06;100.00
21240;BME280;10778;48.962;9.018;2023-03-20T02:44:17;99387.47;;;7.04;100.00
21240;BME280;10778;48.962;9.018;2023-03-20T02:47:14;99383.81;;;7.07;100.00
21240;BME280;10778;48.962;9.018;2023-03-20T02:55:07;99380.06;;;6.98;100.00
21240;BME280;10778;48.962;9.018;2023-03-20T03:00:33;99391.34;;;6.98;100.00
21240;BME280;10778;48.962;9.018;2023-03-20T03:03:08;99391.97;;;7.02;100.00
21240;BME280;10778;48.962;9.018;2023-03-20T03:05:58;99391.03;;;7.03;100.00
21240;BME280;10778;48.962;9.018;2023-03-20T03:08:30;99391.03;;;7.03;100.00
21240;BME280;10778;48.962;9.018;2023-03-20T03:11:04;99395.44;;;7.03;100.00
21240;BME280;10778;48.962;9.018;2023-03-20T03:13:33;99395.09;;;7.07;100.00
21240;BME280;10778;48.962;9.018;2023-03-20T03:16:07;99394.03;;;7.10;100.00
21240;BME280;10778;48.962;9.018;2023-03-20T03:18:37;99389.75;;;7.09;100.00
21240;BME280;10778;48.962;9.018;2023-03-20T03:21:06;99393.31;;;7.08;100.00
21240;BME280;10778;48.962;9.018;2023-03-20T03:23:42;99392.28;;;7.10;100.00
21240;BME280;10778;48.962;9.018;2023-03-20T03:26:15;99393.19;;;7.09;100.00
21240;BME280;10778;48.962;9.018;2023-03-20T03:28:46;99397.59;;;7.09;100.00
21240;BME280;10778;48.962;9.018;2023-03-20T03:31:16;99399.91;;;7.14;100.00
21240;BME280;10778;48.962;9.018;2023-03-20T03:33:54;99397.38;;;7.12;100.00
21240;BME280;10778;48.962;9.018;2023-03-20T03:41:43;99399.78;;;7.15;100.00
21240;BME280;10778;48.962;9.018;2023-03-20T03:44:16;99394.53;;;7.15;100.00
21240;BME280;10778;48.962;9.018;2023-03-20T03:46:56;99396.34;;;7.15;100.00
21240;BME280;10778;48.962;9.018;2023-03-20T03:49:27;99400.84;;;7.13;100.00
21240;BME280;10778;48.962;9.018;2023-03-20T03:51:57;99406.09;;;7.13;100.00
21240;BME280;10778;48.962;9.018;2023-03-20T03:54:31;99406.81;;;7.15;100.00
21240;BME280;10778;48.962;9.018;2023-03-20T03:57:36;99403.97;;;7.18;100.00
21240;BME280;10778;48.962;9.018;2023-03-20T04:00:10;99409.19;;;7.18;100.00
21240;BME280;10778;48.962;9.018;2023-03-20T04:02:45;99414.13;;;7.22;100.00
21240;BME280;10778;48.962;9.018;2023-03-20T04:05:12;99405.72;;;7.17;100.00
21240;BME280;10778;48.962;9.018;2023-03-20T04:07:44;99404.19;;;7.15;100.00
21240;BME280;10778;48.962;9.018;2023-03-20T04:10:11;99412.63;;;7.18;100.00
21240;BME280;10778;48.962;9.018;2023-03-20T04:12:44;99412.84;;;7.15;100.00
21240;BME280;10778;48.962;9.018;2023-03-20T04:15:12;99406.50;;;7.19;100.00
21240;BME280;10778;48.962;9.018;2023-03-20T04:17:39;99405.63;;;7.19;100.00
21240;BME280;10778;48.962;9.018;2023-03-20T04:20:08;99404.78;;;7.18;100.00
21240;BME280;10778;48.962;9.018;2023-03-20T04:22:34;99401.25;;;7.19;100.00
21240;BME280;10778;48.962;9.018;2023-03-20T04:25:13;99399.34;;;7.21;100.00
21240;BME280;10778;48.962;9.018;2023-03-20T04:27:40;99395.06;;;7.20;100.00
21240;BME280;10778;48.962;9.018;2023-03-20T04:30:13;99401.13;;;7.21;100.00
21240;BME280;10778;48.962;9.018;2023-03-20T04:33:04;99402.06;;;7.20;100.00
21240;BME280;10778;48.962;9.018;2023-03-20T04:35:43;99401.34;;;7.18;100.00
21240;BME280;10778;48.962;9.018;2023-03-20T04:38:13;99406.59;;;7.18;100.00
21240;BME280;10778;48.962;9.018;2023-03-20T04:40:40;99401.66;;;7.13;100.00
21240;BME280;10778;48.962;9.018;2023-03-20T04:43:07;99412.25;;;7.11;100.00
21240;BME280;10778;48.962;9.018;2023-03-20T04:45:34;99416.41;;;7.14;100.00
21240;BME280;10778;48.962;9.018;2023-03-20T04:48:00;99425.34;;;7.11;100.00
21240;BME280;10778;48.962;9.018;2023-03-20T04:50:26;99426.47;;;7.07;100.00
21240;BME280;10778;48.962;9.018;2023-03-20T04:52:53;99428.91;;;7.10;100.00
21240;BME280;10778;48.962;9.018;2023-03-20T04:55:20;99423.78;;;7.09;100.00
21240;BME280;10778;48.962;9.018;2023-03-20T04:57:47;99424.59;;;7.09;100.00
21240;BME280;10778;48.962;9.018;2023-03-20T05:00:14;99429.81;;;7.09;100.00
21240;BME280;10778;48.962;9.018;2023-03-20T05:02:40;99433.91;;;7.14;100.00
21240;BME280;10778;48.962;9.018;2023-03-20T05:05:07;99431.19;;;7.15;100.00
21240;BME280;10778;48.962;9.018;2023-03-20T05:07:34;99433.06;;;7.13;100.00
21240;BME280;10778;48.962;9.018;2023-03-20T05:10:06;99436.53;;;7.14;100.00
21240;BME280;10778;48.962;9.018;2023-03-20T05:12:41;99442.38;;;7.17;100.00
21240;BME280;10778;48.962;9.018;2023-03-20T05:15:25;99441.53;;;7.17;100.00
21240;BME280;10778;48.962;9.018;2023-03-20T05:18:13;99440.69;;;7.16;100.00
21240;BME280;10778;48.962;9.018;2023-03-20T05:21:12;99441.13;;;7.10;100.00
21240;BME280;10778;48.962;9.018;2023-03-20T05:23:58;99437.66;;;7.09;100.00
21240;BME280;10778;48.962;9.018;2023-03-20T05:26:39;99432.44;;;7.22;100.00
21240;BME280;10778;48.962;9.018;2023-03-20T05:29:27;99435.50;;;7.40;100.00
21240;BME280;10778;48.962;9.018;2023-03-20T05:32:18;99430.03;;;7.57;100.00
21240;BME280;10778;48.962;9.018;2023-03-20T05:35:07;99432.13;;;7.76;100.00
21240;BME280;10778;48.962;9.018;2023-03-20T05:37:59;99440.91;;;7.50;100.00
21240;BME280;10778;48.962;9.018;2023-03-20T05:40:58;99445.03;;;7.42;100.00
21240;BME280;10778;48.962;9.018;2023-03-20T05:43:50;99442.78;;;7.37;100.00
21240;BME280;10778;48.962;9.018;2023-03-20T05:46:25;99457.41;;;7.39;100.00
21240;BME280;10778;48.962;9.018;2023-03-20T05:48:51;99460.53;;;7.45;100.00
21240;BME280;10778;48.962;9.018;2023-03-20T05:51:29;99459.38;;;7.49;100.00
21240;BME280;10778;48.962;9.018;2023-03-20T05:54:21;99460.31;;;7.48;100.00
21240;BME280;10778;48.962;9.018;2023-03-20T05:57:16;99464.78;;;7.59;100.00
21240;BME280;10778;48.962;9.018;2023-03-20T05:59:52;99468.53;;;7.67;100.00
21240;BME280;10778;48.962;9.018;2023-03-20T06:02:36;99469.81;;;7.62;100.00
21240;BME280;10778;48.962;9.018;2023-03-20T06:05:14;99466.56;;;7.58;100.00
21240;BME280;10778;48.962;9.018;2023-03-20T06:07:46;99472.09;;;7.66;100.00
21240;BME280;10778;48.962;9.018;2023-03-20T06:10:14;99472.19;;;7.65;100.00
21240;BME280;10778;48.962;9.018;2023-03-20T06:12:41;99472.38;;;7.75;100.00
21240;BME280;10778;48.962;9.018;2023-03-20T06:15:07;99470.03;;;7.83;100.00
21240;BME280;10778;48.962;9.018;2023-03-20T06:17:38;99464.34;;;7.89;100.00
21240;BME280;10778;48.962;9.018;2023-03-20T06:20:05;99463.13;;;7.82;100.00
21240;BME280;10778;48.962;9.018;2023-03-20T06:22:31;99464.47;;;7.88;100.00
21240;BME280;10778;48.962;9.018;2023-03-20T06:24:57;99465.31;;;7.88;100.00
21240;BME280;10778;48.962;9.018;2023-03-20T06:27:30;99459.00;;;7.91;100.00
21240;BME280;10778;48.962;9.018;2023-03-20T06:29:57;99461.00;;;7.87;100.00
21240;BME280;10778;48.962;9.018;2023-03-20T06:32:29;99459.84;;;7.91;100.00
21240;BME280;10778;48.962;9.018;2023-03-20T06:34:58;99463.63;;;7.87;100.00
21240;BME280;10778;48.962;9.018;2023-03-20T06:37:24;99469.09;;;7.84;100.00
21240;BME280;10778;48.962;9.018;2023-03-20T06:39:57;99468.97;;;8.10;100.00
21240;BME280;10778;48.962;9.018;2023-03-20T06:42:24;99468.16;;;8.09;100.00
21240;BME280;10778;48.962;9.018;2023-03-20T06:44:50;99448.19;;;9.13;100.00
21240;BME280;10778;48.962;9.018;2023-03-20T06:47:39;99462.19;;;8.90;100.00
21240;BME280;10778;48.962;9.018;2023-03-20T06:50:06;99465.72;;;9.35;100.00
21240;BME280;10778;48.962;9.018;2023-03-20T06:52:32;99464.97;;;9.67;100.00
21240;BME280;10778;48.962;9.018;2023-03-20T06:55:27;99467.66;;;9.88;100.00
21240;BME280;10778;48.962;9.018;2023-03-20T06:57:54;99476.22;;;10.02;100.00
21240;BME280;10778;48.962;9.018;2023-03-20T07:00:20;99482.28;;;10.35;99.76
21240;BME280;10778;48.962;9.018;2023-03-20T07:02:46;99480.97;;;10.41;98.66
21240;BME280;10778;48.962;9.018;2023-03-20T07:05:15;99477.47;;;10.40;96.46
21240;BME280;10778;48.962;9.018;2023-03-20T07:07:41;99489.84;;;10.61;98.53
21240;BME280;10778;48.962;9.018;2023-03-20T07:10:08;99508.16;;;10.18;97.42
21240;BME280;10778;48.962;9.018;2023-03-20T07:12:35;99508.25;;;9.95;99.64
21240;BME280;10778;48.962;9.018;2023-03-20T07:15:02;99509.88;;;9.64;100.00
21240;BME280;10778;48.962;9.018;2023-03-20T07:17:29;99500.94;;;9.44;100.00
21240;BME280;10778;48.962;9.018;2023-03-20T07:19:55;99502.75;;;9.43;100.00
21240;BME280;10778;48.962;9.018;2023-03-20T07:22:25;99497.59;;;9.30;100.00
21240;BME280;10778;48.962;9.018;2023-03-20T07:25:02;99504.63;;;9.07;100.00
21240;BME280;10778;48.962;9.018;2023-03-20T07:27:29;99505.69;;;9.16;100.00
21240;BME280;10778;48.962;9.018;2023-03-20T07:29:55;99506.56;;;9.28;100.00
21240;BME280;10778;48.962;9.018;2023-03-20T07:32:22;99509.06;;;9.29;100.00
21240;BME280;10778;48.962;9.018;2023-03-20T07:34:50;99504.75;;;9.28;100.00
21240;BME280;10778;48.962;9.018;2023-03-20T07:37:18;99509.91;;;9.30;100.00
21240;BME280;10778;48.962;9.018;2023-03-20T07:39:55;99511.44;;;9.21;100.00
21240;BME280;10778;48.962;9.018;2023-03-20T07:42:40;99501.41;;;9.26;100.00
21240;BME280;10778;48.962;9.018;2023-03-20T07:45:12;99517.16;;;9.26;100.00
21240;BME280;10778;48.962;9.018;2023-03-20T07:47:41;99507.41;;;9.17;100.00
21240;BME280;10778;48.962;9.018;2023-03-20T07:50:07;99507.88;;;9.22;100.00
21240;BME280;10778;48.962;9.018;2023-03-20T07:52:33;99499.63;;;9.04;100.00
21240;BME280;10778;48.962;9.018;2023-03-20T07:54:59;99500.56;;;9.03;100.00
21240;BME280;10778;48.962;9.018;2023-03-20T07:57:25;99507.75;;;9.12;100.00
21240;BME280;10778;48.962;9.018;2023-03-20T07:59:51;99501.91;;;9.08;100.00
21240;BME280;10778;48.962;9.018;2023-03-20T08:02:17;99510.25;;;9.02;100.00
21240;BME280;10778;48.962;9.018;2023-03-20T08:04:44;99508.81;;;9.09;100.00
21240;BME280;10778;48.962;9.018;2023-03-20T08:07:10;99503.34;;;9.01;100.00
21240;BME280;10778;48.962;9.018;2023-03-20T08:09:36;99510.69;;;8.96;100.00
21240;BME280;10778;48.962;9.018;2023-03-20T08:12:03;99509.19;;;9.16;100.00
21240;BME280;10778;48.962;9.018;2023-03-20T08:14:29;99511.31;;;9.34;100.00
21240;BME280;10778;48.962;9.018;2023-03-20T08:16:55;99513.56;;;9.50;100.00
21240;BME280;10778;48.962;9.018;2023-03-20T08:22:41;99507.94;;;9.77;100.00
21240;BME280;10778;48.962;9.018;2023-03-20T08:25:07;99500.59;;;10.04;100.00
21240;BME280;10778;48.962;9.018;2023-03-20T08:27:34;99494.56;;;10.67;100.00
21240;BME280;10778;48.962;9.018;2023-03-20T08:30:01;99494.50;;;10.78;94.02
21240;BME280;10778;48.962;9.018;2023-03-20T08:32:27;99494.19;;;11.65;93.26
21240;BME280;10778;48.962;9.018;2023-03-20T08:34:53;99492.03;;;12.29;86.02
21240;BME280;10778;48.962;9.018;2023-03-20T08:37:20;99487.59;;;12.49;84.68
21240;BME280;10778;48.962;9.018;2023-03-20T08:39:46;99484.34;;;13.97;79.67
21240;BME280;10778;48.962;9.018;2023-03-20T08:42:13;99485.63;;;14.47;73.48
21240;BME280;10778;48.962;9.018;2023-03-20T08:44:39;99480.47;;;15.76;70.88
21240;BME280;10778;48.962;9.018;2023-03-20T08:47:05;99478.75;;;16.18;67.10
21240;BME280;10778;48.962;9.018;2023-03-20T08:49:33;99477.13;;;17.15;64.94
21240;BME280;10778;48.962;9.018;2023-03-20T08:51:59;99484.56;;;15.62;68.97
21240;BME280;10778;48.962;9.018;2023-03-20T08:54:25;99485.78;;;13.73;74.47
21240;BME280;10778;48.962;9.018;2023-03-20T08:56:51;99483.13;;;13.45;77.82
21240;BME280;10778;48.962;9.018;2023-03-20T08:59:17;99502.16;;;13.11;77.21
21240;BME280;10778;48.962;9.018;2023-03-20T09:01:44;99502.47;;;12.31;80.61
21240;BME280;10778;48.962;9.018;2023-03-20T09:04:12;99496.59;;;13.14;79.86
21240;BME280;10778;48.962;9.018;2023-03-20T09:06:39;99497.03;;;13.47;73.81
21240;BME280;10778;48.962;9.018;2023-03-20T09:09:06;99505.78;;;12.13;78.34
21240;BME280;10778;48.962;9.018;2023-03-20T09:11:32;99497.66;;;11.85;79.38
21240;BME280;10778;48.962;9.018;2023-03-20T09:13:59;99498.56;;;12.05;81.36
21240;BME280;10778;48.962;9.018;2023-03-20T09:16:25;99490.63;;;12.55;78.51
21240;BME280;10778;48.962;9.018;2023-03-20T09:18:52;99498.00;;;12.51;79.96
21240;BME280;10778;48.962;9.018;2023-03-20T09:21:18;99503.84;;;12.35;80.43
21240;BME280;10778;48.962;9.018;2023-03-20T09:23:44;99502.41;;;11.91;81.76
21240;BME280;10778;48.962;9.018;2023-03-20T09:26:10;99505.97;;;11.71;80.20
21240;BME280;10778;48.962;9.018;2023-03-20T09:28:36;99514.47;;;11.43;83.76
21240;BME280;10778;48.962;9.018;2023-03-20T09:31:02;99511.50;;;11.27;84.59
21240;BME280;10778;48.962;9.018;2023-03-20T09:33:28;99510.03;;;11.34;84.29
21240;BME280;10778;48.962;9.018;2023-03-20T09:35:54;99506.47;;;11.14;83.02
21240;BME280;10778;48.962;9.018;2023-03-20T09:38:20;99519.16;;;11.80;80.92
21240;BME280;10778;48.962;9.018;2023-03-20T09:43:48;99515.81;;;11.78;82.27
21240;BME280;10778;48.962;9.018;2023-03-20T09:46:55;99524.53;;;12.40;80.29
21240;BME280;10778;48.962;9.018;2023-03-20T09:51:58;99522.94;;;13.34;74.60
21240;BME280;10778;48.962;9.018;2023-03-20T09:54:44;99523.31;;;13.11;77.29
21240;BME280;10778;48.962;9.018;2023-03-20T09:57:20;99526.09;;;13.09;76.08
21240;BME280;10778;48.962;9.018;2023-03-20T09:59:48;99524.22;;;12.62;76.71
21240;BME280;10778;48.962;9.018;2023-03-20T10:02:18;99521.84;;;12.79;77.90
21240;BME280;10778;48.962;9.018;2023-03-20T10:04:53;99521.22;;;12.28;80.30
21240;BME280;10778;48.962;9.018;2023-03-20T10:07:20;99525.22;;;12.22;81.95
21240;BME280;10778;48.962;9.018;2023-03-20T10:09:47;99534.47;;;11.97;83.70
21240;BME280;10778;48.962;9.018;2023-03-20T10:20:32;99533.28;;;12.30;78.88
21240;BME280;10778;48.962;9.018;2023-03-20T10:23:07;99534.81;;;12.13;78.75
21240;BME280;10778;48.962;9.018;2023-03-20T10:25:50;99535.50;;;12.35;78.70
21240;BME280;10778;48.962;9.018;2023-03-20T10:33:56;99517.78;;;12.94;75.46
21240;BME280;10778;48.962;9.018;2023-03-20T10:37:01;99519.81;;;12.53;76.33
21240;BME280;10778;48.962;9.018;2023-03-20T10:39:40;99513.41;;;12.56;77.39
21240;BME280;10778;48.962;9.018;2023-03-20T10:42:16;99518.56;;;12.47;77.52
21240;BME280;10778;48.962;9.018;2023-03-20T10:44:49;99524.94;;;12.55;76.97
21240;BME280;10778;48.962;9.018;2023-03-20T10:47:19;99517.44;;;12.60;77.44
21240;BME280;10778;48.962;9.018;2023-03-20T10:49:56;99518.81;;;12.64;77.23
21240;BME280;10778;48.962;9.018;2023-03-20T10:52:27;99511.53;;;13.33;72.31
21240;BME280;10778;48.962;9.018;2023-03-20T10:55:06;99510.66;;;13.43;71.81
21240;BME280;10778;48.962;9.018;2023-03-20T10:57:38;99511.41;;;14.27;69.42
21240;BME280;10778;48.962;9.018;2023-03-20T11:00:17;99499.19;;;14.97;65.91
21240;BME280;10778;48.962;9.018;2023-03-20T11:02:44;99495.16;;;15.11;66.50
21240;BME280;10778;48.962;9.018;2023-03-20T11:05:31;99506.31;;;15.23;64.15
21240;BME280;10778;48.962;9.018;2023-03-20T11:08:05;99503.88;;;14.77;61.65
21240;BME280;10778;48.962;9.018;2023-03-20T11:10:34;99498.16;;;15.16;63.83
21240;BME280;10778;48.962;9.018;2023-03-20T11:15:50;99500.19;;;14.51;65.22
21240;BME280;10778;48.962;9.018;2023-03-20T11:18:16;99502.34;;;14.30;64.59
21240;BME280;10778;48.962;9.018;2023-03-20T11:20:51;99497.44;;;14.79;64.26
21240;BME280;10778;48.962;9.018;2023-03-20T11:23:23;99495.63;;;14.80;63.11
21240;BME280;10778;48.962;9.018;2023-03-20T11:25:56;99483.34;;;14.53;61.78
21240;BME280;10778;48.962;9.018;2023-03-20T11:28:36;99491.38;;;14.69;62.22
21240;BME280;10778;48.962;9.018;2023-03-20T11:31:13;99489.50;;;14.79;61.25
21240;BME280;10778;48.962;9.018;2023-03-20T11:33:46;99488.63;;;14.34;62.14
21240;BME280;10778;48.962;9.018;2023-03-20T11:36:24;99492.63;;;14.57;63.24
21240;BME280;10778;48.962;9.018;2023-03-20T11:38:52;99487.16;;;14.76;59.96
21240;BME280;10778;48.962;9.018;2023-03-20T11:41:23;99478.19;;;15.04;61.28
21240;BME280;10778;48.962;9.018;2023-03-20T11:43:50;99484.66;;;15.01;62.13
21240;BME280;10778;48.962;9.018;2023-03-20T11:46:18;99492.97;;;14.80;63.77
21240;BME280;10778;48.962;9.018;2023-03-20T11:48:46;99484.09;;;14.89;62.72
21240;BME280;10778;48.962;9.018;2023-03-20T11:51:17;99480.91;;;15.55;62.27
21240;BME280;10778;48.962;9.018;2023-03-20T11:56:27;99479.06;;;16.07;57.32
21240;BME280;10778;48.962;9.018;2023-03-20T12:01:49;99483.75;;;15.62;58.96
21240;BME280;10778;48.962;9.018;2023-03-20T12:04:19;99476.69;;;15.36;58.43
21240;BME280;10778;48.962;9.018;2023-03-20T12:07:29;99469.53;;;15.79;57.50
21240;BME280;10778;48.962;9.018;2023-03-20T12:10:02;99459.66;;;15.39;57.68
21240;BME280;10778;48.962;9.018;2023-03-20T12:15:09;99465.88;;;15.21;61.91
21240;BME280;10778;48.962;9.018;2023-03-20T12:17:45;99452.50;;;15.31;59.57
21240;BME280;10778;48.962;9.018;2023-03-20T12:23:12;99465.44;;;14.99;60.83
21240;BME280;10778;48.962;9.018;2023-03-20T12:25:48;99456.19;;;14.32;62.39
21240;BME280;10778;48.962;9.018;2023-03-20T12:33:58;99462.09;;;13.72;63.75
21240;BME280;10778;48.962;9.018;2023-03-20T12:36:35;99448.22;;;14.24;64.06
21240;BME280;10778;48.962;9.018;2023-03-20T12:39:08;99446.50;;;13.97;64.70
21240;BME280;10778;48.962;9.018;2023-03-20T12:41:53;99447.91;;;15.06;60.31
21240;BME280;10778;48.962;9.018;2023-03-20T12:47:17;99434.00;;;15.04;60.26
21240;BME280;10778;48.962;9.018;2023-03-20T12:58:33;99423.28;;;16.57;54.59
21240;BME280;10778;48.962;9.018;2023-03-20T13:11:58;99399.03;;;16.60;53.12
21240;BME280;10778;48.962;9.018;2023-03-20T13:14:35;99403.25;;;16.04;54.05
21240;BME280;10778;48.962;9.018;2023-03-20T13:20:33;99401.69;;;15.60;54.19
21240;BME280;10778;48.962;9.018;2023-03-20T13:26:13;99391.19;;;15.26;55.40
21240;BME280;10778;48.962;9.018;2023-03-20T13:34:22;99388.22;;;15.29;58.17
21240;BME280;10778;48.962;9.018;2023-03-20T13:39:33;99384.19;;;14.73;57.69
21240;BME280;10778;48.962;9.018;2023-03-20T13:42:05;99380.34;;;15.02;58.49
21240;BME280;10778;48.962;9.018;2023-03-20T13:44:36;99377.28;;;15.32;57.56
21240;BME280;10778;48.962;9.018;2023-03-20T13:47:22;99373.31;;;15.36;58.05
21240;BME280;10778;48.962;9.018;2023-03-20T13:50:16;99371.88;;;14.99;58.87
21240;BME280;10778;48.962;9.018;2023-03-20T13:55:59;99362.19;;;14.73;59.40
21240;BME280;10778;48.962;9.018;2023-03-20T14:01:18;99369.75;;;15.11;56.44
21240;BME280;10778;48.962;9.018;2023-03-20T14:03:47;99365.06;;;15.64;56.16
21240;BME280;10778;48.962;9.018;2023-03-20T14:06:42;99360.09;;;15.77;55.63
21240;BME280;10778;48.962;9.018;2023-03-20T14:09:34;99362.09;;;15.67;55.74
21240;BME280;10778;48.962;9.018;2023-03-20T14:12:09;99354.50;;;15.97;55.54
21240;BME280;10778;48.962;9.018;2023-03-20T14:15:01;99349.69;;;15.92;54.92
21240;BME280;10778;48.962;9.018;2023-03-20T14:17:29;99350.44;;;15.35;56.54
21240;BME280;10778;48.962;9.018;2023-03-20T14:20:09;99348.16;;;14.97;56.91
21240;BME280;10778;48.962;9.018;2023-03-20T14:22:38;99357.16;;;15.04;57.36
21240;BME280;10778;48.962;9.018;2023-03-20T14:25:08;99349.44;;;14.50;58.84
21240;BME280;10778;48.962;9.018;2023-03-20T14:27:57;99357.72;;;14.20;59.34
21240;BME280;10778;48.962;9.018;2023-03-20T14:35:26;99361.81;;;13.42;61.90
21240;BME280;10778;48.962;9.018;2023-03-20T14:38:32;99358.16;;;13.53;59.76
21240;BME280;10778;48.962;9.018;2023-03-20T14:41:13;99355.81;;;13.68;60.71
21240;BME280;10778;48.962;9.018;2023-03-20T14:48:52;99356.38;;;13.26;62.66
21240;BME280;10778;48.962;9.018;2023-03-20T14:51:40;99357.19;;;13.08;63.19
21240;BME280;10778;48.962;9.018;2023-03-20T14:56:47;99348.44;;;13.26;63.62
21240;BME280;10778;48.962;9.018;2023-03-20T14:59:15;99348.34;;;13.17;62.17
21240;BME280;10778;48.962;9.018;2023-03-20T15:04:41;99356.38;;;12.98;63.77
21240;BME280;10778;48.962;9.018;2023-03-20T15:09:50;99345.69;;;12.99;63.46
21240;BME280;10778;48.962;9.018;2023-03-20T15:12:22;99355.69;;;12.95;63.91
21240;BME280;10778;48.962;9.018;2023-03-20T15:14:58;99355.63;;;12.87;63.92
21240;BME280;10778;48.962;9.018;2023-03-20T15:17:36;99350.59;;;12.94;64.80
21240;BME280;10778;48.962;9.018;2023-03-20T15:20:11;99349.28;;;12.70;65.63
21240;BME280;10778;48.962;9.018;2023-03-20T15:23:00;99350.66;;;12.46;65.89
21240;BME280;10778;48.962;9.018;2023-03-20T15:25:41;99346.88;;;12.49;66.17
21240;BME280;10778;48.962;9.018;2023-03-20T15:28:13;99352.44;;;12.46;66.70
21240;BME280;10778;48.962;9.018;2023-03-20T15:30:42;99350.66;;;12.46;66.48
21240;BME280;10778;48.962;9.018;2023-03-20T15:33:16;99351.22;;;12.30;66.32
21240;BME280;10778;48.962;9.018;2023-03-20T15:35:44;99356.97;;;12.26;66.26
21240;BME280;10778;48.962;9.018;2023-03-20T15:38:13;99351.81;;;12.24;66.02
21240;BME280;10778;48.962;9.018;2023-03-20T15:40:40;99355.19;;;12.06;65.83
21240;BME280;10778;48.962;9.018;2023-03-20T15:45:38;99358.63;;;12.17;66.60
21240;BME280;10778;48.962;9.018;2023-03-20T15:48:07;99358.34;;;12.20;65.91
21240;BME280;10778;48.962;9.018;2023-03-20T15:50:39;99354.16;;;12.27;64.43
21240;BME280;10778;48.962;9.018;2023-03-20T15:53:07;99361.97;;;12.19;65.17